Time;durP1;ratioP1;P1;durP2;ratioP2;P2;SDS_P1;SDS_P2;PMS_P1;PMS_P2;Temp;Humidity;BMP_temperature;BMP_pressure;BME280_temperature;BME280_humidity;BME280_pressure;Samples;Min_cycle;Max_cycle;Signal;HPM_P1;HPM_P2
2022/06/19 00:00:37;;;;;;;9.53;7.77;;;;;;;20.17;100.00;96202.88;5017105;28;20489;-75
2022/06/19 00:03:09;;;;;;;15.57;7.53;;;;;;;20.17;100.00;96220.91;5017357;28;20466;-74
2022/06/19 00:05:36;;;;;;;19.23;8.50;;;;;;;20.05;100.00;96187.97;5033007;28;20450;-74
2022/06/19 00:08:03;;;;;;;21.00;8.57;;;;;;;19.81;100.00;96183.47;5033529;28;20912;-74
2022/06/19 00:10:31;;;;;;;18.27;8.93;;;;;;;19.69;100.00;96210.72;5034573;28;20504;-75
2022/06/19 00:12:58;;;;;;;16.03;10.47;;;;;;;19.63;100.00;96180.06;5033051;28;20450;-74
2022/06/19 00:15:24;;;;;;;19.37;9.63;;;;;;;19.65;100.00;96196.56;5034951;28;20430;-74
2022/06/19 00:17:51;;;;;;;14.43;8.37;;;;;;;19.37;100.00;96176.69;5016996;28;20446;-74
2022/06/19 00:20:18;;;;;;;21.80;10.07;;;;;;;19.27;100.00;96169.44;5033347;28;20512;-74
2022/06/19 00:22:46;;;;;;;17.53;9.17;;;;;;;19.33;100.00;96151.78;5033735;28;20524;-75
2022/06/19 00:25:12;;;;;;;14.87;7.90;;;;;;;19.59;100.00;96173.97;5032809;28;20454;-74
2022/06/19 00:27:40;;;;;;;16.13;9.10;;;;;;;19.61;100.00;96175.09;5016654;28;20454;-75
2022/06/19 00:30:11;;;;;;;11.03;7.53;;;;;;;19.95;100.00;96178.06;5028777;28;20454;-74
2022/06/19 00:32:38;;;;;;;11.20;8.10;;;;;;;19.83;100.00;96173.13;5033537;28;20418;-75
2022/06/19 00:35:05;;;;;;;9.23;7.67;;;;;;;20.05;100.00;96179.16;5033215;28;20545;-75
2022/06/19 00:37:33;;;;;;;11.27;7.40;;;;;;;19.92;100.00;96164.66;5034068;28;20500;-74
2022/06/19 00:40:02;;;;;;;9.27;7.07;;;;;;;19.93;100.00;96169.63;5032773;28;20478;-75
2022/06/19 00:42:29;;;;;;;9.17;7.07;;;;;;;19.96;100.00;96138.56;5034159;28;21005;-74
2022/06/19 00:44:56;;;;;;;9.27;7.87;;;;;;;19.92;100.00;96135.13;5033313;28;20502;-75
2022/06/19 00:47:26;;;;;;;11.43;7.47;;;;;;;19.74;100.00;96132.50;5016564;28;20453;-74
2022/06/19 00:50:04;;;;;;;11.00;8.30;;;;;;;19.93;100.00;96153.53;5034459;28;20454;-74
2022/06/19 00:52:38;;;;;;;10.97;7.40;;;;;;;19.33;100.00;96113.50;5034282;28;20488;-74
2022/06/19 00:55:13;;;;;;;9.17;7.97;;;;;;;19.49;100.00;96152.13;5034078;28;20481;-74
2022/06/19 00:57:42;;;;;;;11.63;8.47;;;;;;;19.13;100.00;96123.91;5032401;28;20500;-75
2022/06/19 01:00:14;;;;;;;9.60;6.80;;;;;;;19.37;100.00;96136.47;5031931;28;20500;-74
2022/06/19 01:02:43;;;;;;;12.83;7.77;;;;;;;19.40;100.00;96134.94;5015691;28;20474;-74
2022/06/19 01:05:13;;;;;;;11.33;7.77;;;;;;;19.58;100.00;96140.25;5031832;28;20458;-74
2022/06/19 01:07:42;;;;;;;12.03;6.93;;;;;;;19.65;100.00;96142.91;5015981;28;21032;-75
2022/06/19 01:10:12;;;;;;;14.70;7.53;;;;;;;19.45;100.00;96129.16;5031953;28;20859;-74
2022/06/19 01:12:47;;;;;;;8.60;6.50;;;;;;;19.37;100.00;96106.22;5032097;28;20442;-74
2022/06/19 01:15:18;;;;;;;10.50;7.50;;;;;;;19.62;100.00;96127.59;5032417;28;20500;-74
2022/06/19 01:17:47;;;;;;;7.33;6.63;;;;;;;19.65;100.00;96130.28;5032625;28;20938;-75
2022/06/19 01:20:15;;;;;;;9.90;7.47;;;;;;;19.52;100.00;96131.06;5016398;28;20901;-74
2022/06/19 01:23:08;;;;;;;8.60;7.80;;;;;;;19.50;100.00;96123.41;5031846;28;20520;-74
2022/06/19 01:25:38;;;;;;;8.57;7.90;;;;;;;19.29;100.00;96115.44;5033438;28;20433;-74
2022/06/19 01:31:08;;;;;;;10.40;7.50;;;;;;;19.20;100.00;96111.22;5030112;28;20418;-74
2022/06/19 01:34:00;;;;;;;7.67;6.50;;;;;;;18.92;100.00;96092.53;5032198;28;20525;-74
2022/06/19 01:36:30;;;;;;;7.13;6.43;;;;;;;18.82;100.00;96061.91;5031938;28;21013;-73
2022/06/19 01:38:58;;;;;;;9.67;6.90;;;;;;;18.96;100.00;96092.50;5019714;28;20438;-73
2022/06/19 01:41:31;;;;;;;9.43;6.50;;;;;;;19.10;100.00;96079.88;5044293;28;20465;-74
2022/06/19 01:43:58;;;;;;;9.37;8.40;;;;;;;18.75;100.00;96069.97;5048418;28;20540;-74
2022/06/19 01:46:27;;;;;;;14.83;7.17;;;;;;;18.35;100.00;96067.69;5042487;28;20437;-74
2022/06/19 01:48:55;;;;;;;12.20;8.60;;;;;;;18.58;100.00;96052.00;5023597;28;20449;-73
2022/06/19 01:51:22;;;;;;;10.70;7.80;;;;;;;18.49;100.00;96025.63;5043934;28;20942;-74
2022/06/19 01:53:57;;;;;;;11.63;7.87;;;;;;;18.64;100.00;96055.84;5022879;28;20494;-74
2022/06/19 01:56:24;;;;;;;10.63;6.97;;;;;;;18.64;100.00;96029.06;5022764;28;21000;-74
2022/06/19 01:58:55;;;;;;;12.67;7.57;;;;;;;18.95;100.00;96056.91;5036477;28;20812;-74
2022/06/19 02:01:22;;;;;;;9.67;8.67;;;;;;;18.63;100.00;96005.31;5043314;28;20418;-74
2022/06/19 02:03:52;;;;;;;11.13;7.10;;;;;;;19.12;100.00;96055.34;5046576;28;20468;-74
2022/06/19 02:06:23;;;;;;;8.27;7.37;;;;;;;19.02;100.00;96045.44;5045796;28;20798;-74
2022/06/19 02:08:50;;;;;;;13.00;7.37;;;;;;;18.88;100.00;96020.22;5039522;28;21065;-74
2022/06/19 02:11:16;;;;;;;7.43;5.90;;;;;;;19.13;100.00;96036.22;5039777;28;20450;-72
2022/06/19 02:13:44;;;;;;;7.50;6.80;;;;;;;18.88;100.00;96011.41;5026763;28;20437;-72
2022/06/19 02:16:21;;;;;;;8.23;7.03;;;;;;;19.20;100.00;96030.03;5039210;28;20434;-73
2022/06/19 02:18:50;;;;;;;8.40;7.30;;;;;;;18.99;100.00;96028.22;5044544;28;20477;-72
2022/06/19 02:21:22;;;;;;;8.03;7.10;;;;;;;19.11;100.00;96027.78;5046203;28;20445;-72
2022/06/19 02:23:49;;;;;;;11.43;7.60;;;;;;;18.67;100.00;96000.72;5022825;28;21285;-73
2022/06/19 02:26:17;;;;;;;9.13;7.27;;;;;;;18.57;100.00;96010.31;5042862;28;20942;-72
2022/06/19 02:28:50;;;;;;;9.30;6.30;;;;;;;18.72;100.00;96011.84;4996592;28;20470;-72
2022/06/19 02:31:18;;;;;;;9.63;7.10;;;;;;;18.76;100.00;96012.59;5041079;28;20470;-72
2022/06/19 02:33:50;;;;;;;7.87;7.07;;;;;;;18.83;100.00;95993.81;5024388;28;20465;-72
2022/06/19 02:36:36;;;;;;;8.60;6.53;;;;;;;18.68;100.00;95995.00;5046221;28;20419;-73
2022/06/19 02:39:24;;;;;;;6.77;6.07;;;;;;;18.64;100.00;96004.19;5046177;28;20469;-73
2022/06/19 02:42:00;;;;;;;9.60;7.20;;;;;;;18.37;100.00;95980.50;5043801;28;20946;-73
2022/06/19 02:44:36;;;;;;;13.03;7.23;;;;;;;18.26;100.00;95999.25;5038979;28;20515;-72
2022/06/19 02:47:04;;;;;;;6.60;6.00;;;;;;;18.03;100.00;95982.84;5038761;28;20442;-72
2022/06/19 02:49:30;;;;;;;9.10;7.07;;;;;;;18.11;100.00;95973.63;5052484;28;20813;-73
2022/06/19 02:51:57;;;;;;;7.93;7.10;;;;;;;18.29;100.00;95961.00;5038883;28;20508;-72
2022/06/19 02:54:24;;;;;;;6.63;5.90;;;;;;;18.51;100.00;95982.38;5044087;28;20938;-73
2022/06/19 02:56:51;;;;;;;5.93;5.47;;;;;;;18.58;100.00;95982.38;5046749;28;20422;-73
2022/06/19 02:59:17;;;;;;;7.10;6.40;;;;;;;18.64;100.00;95974.72;5041115;28;20489;-72
2022/06/19 03:01:44;;;;;;;5.60;5.10;;;;;;;18.80;100.00;95973.16;5022156;28;20469;-72
2022/06/19 03:04:18;;;;;;;6.40;5.80;;;;;;;18.80;100.00;95983.09;5044323;28;20957;-73
2022/06/19 03:06:45;;;;;;;6.20;5.60;;;;;;;19.01;100.00;96001.03;5035518;28;20426;-73
2022/06/19 03:09:12;;;;;;;5.20;4.70;;;;;;;19.08;100.00;96001.75;5023367;28;20518;-72
2022/06/19 03:11:39;;;;;;;7.23;4.70;;;;;;;19.03;100.00;95985.31;5044254;28;20833;-72
2022/06/19 03:14:05;;;;;;;7.03;5.17;;;;;;;19.09;100.00;96002.50;5031848;28;20438;-72
2022/06/19 03:16:32;;;;;;;12.20;5.60;;;;;;;19.13;100.00;95987.19;5046459;28;20774;-73
2022/06/19 03:18:59;;;;;;;8.10;5.90;;;;;;;18.78;100.00;95954.03;5042273;28;20964;-73
2022/06/19 03:21:27;;;;;;;6.50;5.87;;;;;;;18.99;100.00;95973.88;5039577;28;20496;-72
2022/06/19 03:23:54;;;;;;;6.63;5.97;;;;;;;19.02;100.00;95976.53;5053037;28;20542;-72
2022/06/19 03:26:20;;;;;;;6.97;5.90;;;;;;;18.82;100.00;95938.69;5033936;28;20478;-73
2022/06/19 03:28:47;;;;;;;5.30;4.80;;;;;;;19.08;100.00;95980.31;5032951;28;20477;-73
2022/06/19 03:31:18;;;;;;;6.40;5.90;;;;;;;19.04;100.00;95965.41;5046277;28;20430;-73
2022/06/19 03:33:45;;;;;;;8.03;5.53;;;;;;;19.05;100.00;95956.22;5045241;28;20425;-73
2022/06/19 03:36:12;;;;;;;6.97;6.37;;;;;;;18.97;100.00;95958.19;5038258;28;20556;-72
2022/06/19 03:38:39;;;;;;;8.47;5.40;;;;;;;18.65;100.00;95936.09;5022994;28;21030;-74
2022/06/19 03:41:05;;;;;;;6.70;6.10;;;;;;;18.81;100.00;95953.25;5044736;28;20492;-72
2022/06/19 03:43:33;;;;;;;5.80;5.30;;;;;;;18.89;100.00;95956.66;5044357;28;20476;-72
2022/06/19 03:46:14;;;;;;;6.57;5.93;;;;;;;19.01;100.00;95966.97;5039706;28;20460;-73
2022/06/19 03:48:43;;;;;;;6.00;5.50;;;;;;;18.97;100.00;95960.84;5039162;28;20428;-73
2022/06/19 03:51:10;;;;;;;10.50;5.33;;;;;;;18.83;100.00;95953.63;5044332;28;20415;-73
2022/06/19 03:53:38;;;;;;;6.50;5.30;;;;;;;18.84;100.00;95967.78;5044494;28;20491;-72
2022/06/19 03:56:06;;;;;;;7.37;4.80;;;;;;;18.76;100.00;95967.03;5040098;28;20736;-72
2022/06/19 03:58:46;;;;;;;6.10;5.47;;;;;;;18.40;100.00;95936.88;5021498;28;20434;-72
2022/06/19 04:01:18;;;;;;;5.80;5.30;;;;;;;18.55;100.00;95965.16;5023424;28;20429;-72
2022/06/19 04:03:47;;;;;;;10.47;5.87;;;;;;;18.34;100.00;95964.44;5045760;28;20450;-72
2022/06/19 04:06:16;;;;;;;8.17;5.90;;;;;;;18.25;100.00;95970.19;5031483;28;20430;-72
2022/06/19 04:08:46;;;;;;;5.20;4.80;;;;;;;18.44;100.00;95963.66;5030609;28;20554;-72
2022/06/19 04:11:15;;;;;;;5.87;5.47;;;;;;;18.50;100.00;95956.75;5030950;28;20508;-73
2022/06/19 04:13:42;;;;;;;6.20;5.60;;;;;;;18.48;100.00;95957.16;5026445;28;20461;-72
2022/06/19 04:16:19;;;;;;;13.03;5.00;;;;;;;18.88;100.00;95974.66;5038615;28;20430;-73
2022/06/19 04:18:46;;;;;;;6.10;5.47;;;;;;;18.99;100.00;95977.31;5041928;28;20434;-72
2022/06/19 04:21:22;;;;;;;4.63;4.23;;;;;;;19.27;100.00;95981.78;5043851;28;20860;-73
2022/06/19 04:23:53;;;;;;;5.67;5.27;;;;;;;19.46;100.00;95967.09;5020337;28;20499;-72
2022/06/19 04:26:21;;;;;;;5.97;5.43;;;;;;;19.36;100.00;95952.59;5041431;28;20443;-72
2022/06/19 04:28:48;;;;;;;7.00;6.40;;;;;;;19.52;100.00;95978.97;5042982;28;20461;-73
2022/06/19 04:31:16;;;;;;;7.00;6.37;;;;;;;19.53;100.00;95966.31;5015891;28;20434;-73
2022/06/19 04:33:43;;;;;;;7.10;6.50;;;;;;;19.55;100.00;95975.50;5013897;28;20429;-72
2022/06/19 04:36:16;;;;;;;9.00;6.43;;;;;;;19.74;100.00;95971.53;5043722;28;20429;-73
2022/06/19 04:38:45;;;;;;;7.33;6.57;;;;;;;19.94;100.00;95980.59;5042793;28;20434;-72
2022/06/19 04:41:16;;;;;;;7.53;6.93;;;;;;;19.96;100.00;95982.88;5020605;28;21010;-72
2022/06/19 04:43:43;;;;;;;8.70;7.30;;;;;;;19.92;100.00;95977.56;5036476;28;20470;-73
2022/06/19 04:46:10;;;;;;;8.00;7.17;;;;;;;19.94;100.00;95975.25;5023100;28;20427;-73
2022/06/19 04:48:38;;;;;;;9.90;7.10;;;;;;;19.96;100.00;95982.88;5043385;28;20445;-72
2022/06/19 04:51:05;;;;;;;7.30;6.33;;;;;;;20.06;100.00;95974.75;5038951;28;20727;-73
2022/06/19 04:53:32;;;;;;;10.27;6.43;;;;;;;20.32;100.00;95980.69;5018253;28;20870;-72
2022/06/19 04:56:00;;;;;;;6.63;6.00;;;;;;;19.94;100.00;95945.72;5042089;28;20438;-73
2022/06/19 04:58:27;;;;;;;6.40;5.80;;;;;;;20.34;100.00;95962.25;5043883;28;20524;-72
2022/06/19 05:00:54;;;;;;;14.17;7.03;;;;;;;20.44;100.00;95956.03;5038783;28;20499;-73
2022/06/19 05:03:23;;;;;;;8.73;5.00;;;;;;;20.40;100.00;95916.91;5036523;28;20504;-73
2022/06/19 05:05:52;;;;;;;7.27;5.37;;;;;;;20.99;100.00;95971.16;5042241;28;20770;-73
2022/06/19 05:08:20;;;;;;;6.40;4.90;;;;;;;21.07;100.00;95953.78;5043195;28;20968;-73
2022/06/19 05:10:47;;;;;;;5.03;4.53;;;;;;;21.27;100.00;95962.00;5013518;28;20509;-73
2022/06/19 05:13:16;;;;;;;5.60;5.20;;;;;;;21.16;99.38;95939.84;5033634;28;20458;-73
2022/06/19 05:15:44;;;;;;;5.47;4.97;;;;;;;21.35;98.90;95955.34;5019123;28;20466;-72
2022/06/19 05:18:12;;;;;;;7.77;5.27;;;;;;;21.47;98.42;95962.88;5026313;28;20441;-72
2022/06/19 05:20:39;;;;;;;5.80;5.30;;;;;;;21.37;98.11;95928.84;5042320;28;20445;-75
2022/06/19 05:23:07;;;;;;;7.20;4.73;;;;;;;21.71;97.70;95969.06;5032206;28;20494;-73
2022/06/19 05:25:34;;;;;;;5.60;5.10;;;;;;;21.82;97.55;95958.13;5040978;28;20460;-73
2022/06/19 05:28:01;;;;;;;5.67;5.17;;;;;;;21.93;96.46;95960.66;5037463;28;20421;-73
2022/06/19 05:30:28;;;;;;;5.47;4.97;;;;;;;22.08;93.56;95962.00;5021942;28;20882;-72
2022/06/19 05:32:55;;;;;;;4.60;4.30;;;;;;;22.31;92.49;95970.06;5047997;28;20487;-73
2022/06/19 05:35:22;;;;;;;5.37;4.50;;;;;;;22.35;91.16;95930.34;5038406;28;20415;-73
2022/06/19 05:37:48;;;;;;;6.60;6.10;;;;;;;22.51;89.10;95943.16;5012755;28;20470;-73
2022/06/19 05:40:15;;;;;;;6.03;5.50;;;;;;;22.28;88.08;95890.06;5030387;28;20826;-73
2022/06/19 05:42:43;;;;;;;5.57;5.10;;;;;;;22.95;87.56;95984.31;5042513;28;20430;-72
2022/06/19 05:45:10;;;;;;;6.97;4.97;;;;;;;22.87;87.49;95950.59;5041339;28;20464;-73
2022/06/19 05:47:37;;;;;;;5.87;5.37;;;;;;;22.88;86.34;95939.38;5036821;28;20877;-74
2022/06/19 05:50:04;;;;;;;5.23;4.60;;;;;;;23.10;86.20;95963.22;5036438;28;20540;-74
2022/06/19 05:52:31;;;;;;;5.97;4.07;;;;;;;23.14;84.23;95953.88;5043762;28;20434;-73
2022/06/19 05:54:58;;;;;;;6.20;5.60;;;;;;;23.28;83.56;95958.22;5041043;28;20437;-73
2022/06/19 05:57:25;;;;;;;5.30;4.60;;;;;;;23.24;82.35;95901.66;5018774;28;20472;-73
2022/06/19 05:59:52;;;;;;;7.03;5.00;;;;;;;23.88;80.40;95929.88;5036391;28;20469;-74
2022/06/19 06:02:21;;;;;;;6.73;5.00;;;;;;;23.99;77.65;95924.22;5043510;28;20521;-74
2022/06/19 06:04:48;;;;;;;6.20;4.83;;;;;;;24.31;76.82;95955.13;5030250;28;20476;-73
2022/06/19 06:07:15;;;;;;;5.00;4.60;;;;;;;24.39;76.36;95959.13;5035468;28;20469;-74
2022/06/19 06:09:43;;;;;;;4.83;4.33;;;;;;;24.46;75.13;95937.34;5018936;28;20458;-74
2022/06/19 06:12:10;;;;;;;9.37;4.57;;;;;;;24.93;74.24;95950.34;5036747;28;22172;-75
2022/06/19 06:14:36;;;;;;;6.80;4.60;;;;;;;24.82;72.64;95925.53;5035471;28;20423;-73
2022/06/19 06:17:03;;;;;;;5.80;4.57;;;;;;;24.90;72.48;95924.94;5041258;28;20458;-73
2022/06/19 06:19:31;;;;;;;4.13;3.83;;;;;;;25.19;71.43;95940.38;5043430;28;20510;-74
2022/06/19 06:22:03;;;;;;;5.70;4.70;;;;;;;25.37;68.83;95945.25;5028652;28;20881;-73
2022/06/19 06:24:30;;;;;;;4.60;4.23;;;;;;;25.37;68.53;95945.25;5032366;28;20490;-75
2022/06/19 06:27:00;;;;;;;8.10;4.60;;;;;;;25.43;69.18;95928.03;5019684;28;20932;-73
2022/06/19 06:29:27;;;;;;;4.90;3.80;;;;;;;25.67;67.98;95939.31;5047147;28;20568;-73
2022/06/19 06:31:56;;;;;;;5.03;3.90;;;;;;;25.62;64.91;95947.97;5042510;28;20525;-75
2022/06/19 06:34:23;;;;;;;4.40;4.00;;;;;;;25.72;65.62;95957.75;5028992;28;20434;-73
2022/06/19 06:36:50;;;;;;;6.10;4.00;;;;;;;25.86;66.27;95951.13;5042659;28;20854;-74
2022/06/19 06:39:17;;;;;;;4.00;3.60;;;;;;;25.95;65.53;95962.06;5038343;28;20488;-73
2022/06/19 06:41:43;;;;;;;4.50;4.10;;;;;;;25.88;64.50;95956.84;5040574;28;20430;-73
2022/06/19 06:44:13;;;;;;;5.93;4.30;;;;;;;26.02;64.48;95967.25;5031713;28;20592;-73
2022/06/19 06:46:40;;;;;;;4.20;3.60;;;;;;;25.89;64.37;95901.47;5044501;28;20425;-74
2022/06/19 06:49:07;;;;;;;6.73;3.83;;;;;;;26.33;62.50;95955.81;5033470;28;20500;-73
2022/06/19 06:51:34;;;;;;;4.47;4.07;;;;;;;25.78;62.70;95882.88;5033214;28;20431;-74
2022/06/19 06:54:01;;;;;;;10.00;4.53;;;;;;;26.22;62.11;95912.78;5031564;28;20466;-73
2022/06/19 06:56:33;;;;;;;6.23;3.83;;;;;;;26.60;61.21;95928.94;5011967;28;20447;-73
2022/06/19 06:59:01;;;;;;;3.70;3.40;;;;;;;27.18;59.91;95954.81;5037793;28;20425;-74
2022/06/19 07:01:30;;;;;;;6.53;3.30;;;;;;;27.19;57.24;95967.94;5038475;28;20556;-73
2022/06/19 07:03:59;;;;;;;4.50;4.10;;;;;;;27.05;57.82;95958.34;5018260;28;20765;-73
2022/06/19 07:06:28;;;;;;;3.90;3.60;;;;;;;27.41;56.59;95961.72;5032884;28;20434;-73
2022/06/19 07:08:56;;;;;;;5.57;3.50;;;;;;;27.17;54.54;95953.28;5031382;28;20422;-73
2022/06/19 07:11:27;;;;;;;5.40;3.43;;;;;;;27.33;54.17;95947.63;5032703;28;20906;-73
2022/06/19 07:13:54;;;;;;;5.83;3.20;;;;;;;27.03;53.94;95871.19;5031188;28;20557;-73
2022/06/19 07:16:21;;;;;;;6.27;3.73;;;;;;;27.78;53.87;95930.78;5031379;28;20504;-73
2022/06/19 07:18:48;;;;;;;7.47;3.17;;;;;;;27.90;51.65;95929.88;5031952;28;20485;-73
2022/06/19 07:21:15;;;;;;;3.50;3.07;;;;;;;27.89;50.22;95944.69;5015190;28;20814;-73
2022/06/19 07:23:42;;;;;;;3.33;3.03;;;;;;;27.57;50.56;95945.94;5031388;28;20442;-73
2022/06/19 07:26:15;;;;;;;9.67;3.57;;;;;;;27.53;49.93;95948.03;5031218;28;20466;-74
2022/06/19 07:28:42;;;;;;;7.83;3.80;;;;;;;28.11;49.99;95941.88;5031128;28;20461;-73
2022/06/19 07:31:10;;;;;;;6.60;3.17;;;;;;;27.81;49.14;95940.75;5030970;28;20785;-74
2022/06/19 07:33:40;;;;;;;7.23;3.93;;;;;;;27.96;49.05;95916.47;5031042;28;20466;-73
2022/06/19 07:36:11;;;;;;;6.23;3.40;;;;;;;27.98;49.55;95944.72;5030980;28;20457;-74
2022/06/19 07:38:39;;;;;;;6.60;4.10;;;;;;;28.03;49.10;95934.44;5031142;28;20446;-73
2022/06/19 07:41:06;;;;;;;8.93;3.53;;;;;;;27.76;48.69;95913.41;5014461;28;21051;-73
2022/06/19 07:43:32;;;;;;;4.27;3.37;;;;;;;28.06;48.61;95926.16;5032318;28;20461;-73
2022/06/19 07:45:59;;;;;;;3.80;3.50;;;;;;;27.46;48.65;95849.75;5030680;28;20513;-73
2022/06/19 07:51:17;;;;;;;6.10;3.00;;;;;;;27.94;49.01;95897.91;5019132;28;20485;-73
2022/06/19 07:53:44;;;;;;;7.33;3.70;;;;;;;28.03;49.73;95896.38;5015108;28;20438;-73
2022/06/19 07:56:11;;;;;;;7.60;3.77;;;;;;;28.26;48.21;95883.00;5032260;28;20422;-73
2022/06/19 07:58:38;;;;;;;8.20;4.27;;;;;;;28.58;46.93;95894.47;5030864;28;20446;-73
2022/06/19 08:01:04;;;;;;;7.50;4.20;;;;;;;28.55;47.02;95881.75;5030944;28;20458;-73
2022/06/19 08:03:31;;;;;;;7.27;4.00;;;;;;;28.82;46.88;95894.56;5014493;28;20462;-73
2022/06/19 08:06:00;;;;;;;5.60;3.33;;;;;;;28.72;46.46;95880.25;5038437;28;20971;-73
2022/06/19 08:08:29;;;;;;;8.13;3.27;;;;;;;28.81;45.97;95877.47;5027685;28;20468;-73
2022/06/19 08:10:57;;;;;;;7.37;3.30;;;;;;;29.23;46.17;95904.00;5030660;28;20489;-73
2022/06/19 08:13:26;;;;;;;5.60;3.13;;;;;;;29.57;45.62;95904.81;5030586;28;20486;-75
2022/06/19 08:15:59;;;;;;;8.40;3.83;;;;;;;29.10;44.79;95882.41;5014276;28;20478;-73
2022/06/19 08:18:27;;;;;;;9.70;3.40;;;;;;;29.77;44.61;95906.97;5030687;28;20914;-73
2022/06/19 08:20:54;;;;;;;9.77;3.30;;;;;;;29.97;44.22;95899.75;5011184;28;20533;-73
2022/06/19 08:23:21;;;;;;;9.80;3.70;;;;;;;30.17;44.63;95901.88;5030026;28;20926;-74
2022/06/19 08:25:48;;;;;;;4.67;3.33;;;;;;;30.44;44.05;95895.47;5030556;28;20519;-73
2022/06/19 08:31:16;;;;;;;6.40;2.93;;;;;;;29.96;43.04;95853.84;5042869;28;20433;-73
2022/06/19 08:33:43;;;;;;;6.90;3.40;;;;;;;30.30;42.33;95883.28;5038503;28;20492;-73
2022/06/19 08:36:11;;;;;;;8.80;3.53;;;;;;;30.41;42.25;95890.19;5034394;28;20421;-74
2022/06/19 08:38:43;;;;;;;11.67;4.90;;;;;;;30.93;42.62;95896.09;5049805;28;20450;-73
2022/06/19 08:41:32;;;;;;;11.03;3.63;;;;;;;30.99;41.58;95892.25;5025733;28;20486;-74
2022/06/19 08:44:27;;;;;;;11.10;3.90;;;;;;;31.40;40.55;95895.16;5028285;28;20458;-74
2022/06/19 08:47:08;;;;;;;5.83;3.47;;;;;;;31.32;40.75;95891.28;5038341;28;20425;-73
2022/06/19 08:49:48;;;;;;;9.50;4.07;;;;;;;31.29;40.71;95892.25;5018448;28;20462;-73
2022/06/19 08:52:33;;;;;;;9.93;4.60;;;;;;;31.35;41.33;95898.53;5029385;28;20786;-73
2022/06/19 08:55:06;;;;;;;12.77;3.40;;;;;;;31.34;41.08;95902.50;5029761;28;20432;-74
2022/06/19 08:57:37;;;;;;;7.77;3.63;;;;;;;31.04;40.54;95874.44;5021104;28;20471;-73
2022/06/19 09:00:16;;;;;;;4.90;3.33;;;;;;;31.54;39.82;95880.69;5034434;28;20838;-73
2022/06/19 09:02:51;;;;;;;9.83;4.20;;;;;;;31.75;39.54;95897.91;5023661;28;20447;-73
2022/06/19 09:05:45;;;;;;;9.50;4.73;;;;;;;31.92;39.57;95895.38;5031388;28;20833;-75
2022/06/19 09:08:33;;;;;;;10.37;4.90;;;;;;;32.45;39.30;95897.00;5031346;28;20745;-73
2022/06/19 09:11:21;;;;;;;23.80;17.17;;;;;;;32.05;40.11;95899.31;5013173;28;20458;-74
2022/06/19 09:14:10;;;;;;;11.00;9.50;;;;;;;32.11;39.86;95904.84;5025193;28;20776;-73
2022/06/19 09:17:00;;;;;;;6.87;4.67;;;;;;;31.48;40.78;95864.19;5013057;28;20861;-74
2022/06/19 09:19:51;;;;;;;18.00;14.80;;;;;;;31.77;40.15;95870.81;5029363;28;20539;-73
2022/06/19 09:22:37;;;;;;;12.33;5.60;;;;;;;31.40;40.87;95876.03;5013095;28;20434;-73
2022/06/19 09:25:32;;;;;;;11.20;4.90;;;;;;;31.70;41.15;95871.97;5016566;28;20552;-74
2022/06/19 09:28:34;;;;;;;6.10;4.40;;;;;;;32.47;40.97;95872.66;5026102;28;20449;-76
2022/06/19 09:31:31;;;;;;;8.30;4.00;;;;;;;32.67;40.22;95869.88;5027096;28;20460;-74
2022/06/19 09:34:34;;;;;;;9.30;4.43;;;;;;;32.60;40.15;95884.00;5012047;28;20918;-73
2022/06/19 09:37:14;;;;;;;9.10;4.27;;;;;;;32.50;39.77;95877.19;5017180;28;20452;-73
2022/06/19 09:39:48;;;;;;;9.90;3.83;;;;;;;32.29;40.28;95858.03;5030641;28;20456;-74
2022/06/19 09:42:18;;;;;;;6.80;4.13;;;;;;;32.26;40.59;95878.13;5029258;28;20979;-73
2022/06/19 09:45:00;;;;;;;8.07;4.10;;;;;;;32.24;40.48;95877.88;5029234;28;20807;-74
2022/06/19 09:47:41;;;;;;;15.30;4.97;;;;;;;32.17;40.41;95861.84;5015658;28;20437;-73
2022/06/19 09:50:46;;;;;;;10.70;4.60;;;;;;;32.29;40.17;95866.25;5030494;28;20543;-73
2022/06/19 09:53:34;;;;;;;10.97;4.97;;;;;;;32.48;40.52;95863.97;5029190;28;20441;-73
2022/06/19 09:56:28;;;;;;;9.33;6.00;;;;;;;31.94;40.51;95827.28;5020796;28;20425;-74
2022/06/19 09:59:07;;;;;;;9.00;4.97;;;;;;;32.37;41.11;95852.91;5012658;28;20434;-74
2022/06/19 10:01:35;;;;;;;11.33;5.20;;;;;;;32.62;40.14;95827.50;5012648;28;20445;-74
2022/06/19 10:04:09;;;;;;;12.20;6.00;;;;;;;32.43;40.11;95818.13;5032479;28;20453;-73
2022/06/19 10:06:43;;;;;;;15.00;5.70;;;;;;;32.64;39.06;95832.50;5016408;28;20543;-73
2022/06/19 10:09:32;;;;;;;14.70;6.50;;;;;;;32.18;38.87;95836.00;5016446;28;20462;-74
2022/06/19 10:12:00;;;;;;;11.53;6.13;;;;;;;32.34;39.13;95846.41;5034249;28;20454;-73
2022/06/19 10:14:41;;;;;;;15.23;6.20;;;;;;;31.86;39.44;95815.25;5032968;28;20516;-73
2022/06/19 10:17:23;;;;;;;9.73;5.40;;;;;;;32.61;39.94;95842.44;5011704;28;20437;-73
2022/06/19 10:19:52;;;;;;;9.50;6.20;;;;;;;32.47;39.82;95843.31;5049843;28;20533;-75
2022/06/19 10:22:48;;;;;;;12.80;6.43;;;;;;;33.05;39.28;95843.31;5032586;28;20887;-74
2022/06/19 10:25:33;;;;;;;9.57;6.40;;;;;;;33.06;38.05;95829.13;5021395;28;20458;-74
2022/06/19 10:28:37;;;;;;;13.83;6.20;;;;;;;32.64;38.82;95833.25;5032561;28;21007;-74
2022/06/19 10:31:19;;;;;;;8.30;6.20;;;;;;;32.73;38.60;95826.13;5030356;28;20460;-74
2022/06/19 10:33:49;;;;;;;8.60;6.70;;;;;;;33.06;38.17;95833.84;5032444;28;20789;-73
2022/06/19 10:36:37;;;;;;;13.40;7.00;;;;;;;32.99;37.82;95824.09;5045882;28;20433;-75
2022/06/19 10:39:19;;;;;;;7.27;5.60;;;;;;;32.60;37.71;95823.75;5032784;28;20908;-73
2022/06/19 10:42:01;;;;;;;17.37;6.40;;;;;;;32.36;37.81;95821.28;5033767;28;20917;-74
2022/06/19 10:44:43;;;;;;;8.13;6.17;;;;;;;32.45;38.29;95820.38;5032382;28;20460;-74
2022/06/19 10:47:40;;;;;;;9.00;5.73;;;;;;;32.84;37.74;95829.69;5032232;28;20504;-74
2022/06/19 10:50:37;;;;;;;10.50;6.37;;;;;;;33.08;37.49;95823.91;5033469;28;20865;-73
2022/06/19 10:53:24;;;;;;;10.90;6.33;;;;;;;33.18;36.80;95816.25;5025421;28;20477;-75
2022/06/19 10:56:14;;;;;;;9.47;6.27;;;;;;;33.32;37.07;95795.41;5031924;28;20450;-73
2022/06/19 10:58:41;;;;;;;9.50;5.70;;;;;;;33.89;35.64;95808.94;5033560;28;20420;-74
2022/06/19 11:01:09;;;;;;;10.97;7.37;;;;;;;33.61;36.23;95786.84;5032037;28;20510;-73
2022/06/19 11:06:50;;;;;;;7.60;6.90;;;;;;;34.34;35.48;95812.56;5032237;28;21050;-74
2022/06/19 11:09:21;;;;;;;9.20;6.20;;;;;;;34.35;36.26;95805.81;5021725;28;20488;-73
2022/06/19 11:11:53;;;;;;;10.63;6.20;;;;;;;34.11;35.21;95804.75;5033264;28;20468;-73
2022/06/19 11:14:33;;;;;;;9.33;7.33;;;;;;;33.95;35.33;95811.72;5031517;28;20425;-74
2022/06/19 11:17:06;;;;;;;9.60;6.87;;;;;;;34.28;35.93;95806.28;5031697;28;20995;-74
2022/06/19 11:19:39;;;;;;;10.00;6.20;;;;;;;34.55;35.79;95804.09;5031505;28;20480;-74
2022/06/19 11:22:24;;;;;;;7.60;5.20;;;;;;;34.41;35.11;95825.06;5031667;28;20531;-75
2022/06/19 11:24:53;;;;;;;8.23;6.67;;;;;;;34.05;35.35;95802.75;5032868;28;20441;-74
2022/06/19 11:27:26;;;;;;;16.43;6.90;;;;;;;33.75;35.59;95805.09;5031715;28;20895;-73
2022/06/19 11:29:58;;;;;;;8.70;6.43;;;;;;;33.50;35.89;95773.09;5018475;28;20510;-73
2022/06/19 11:32:27;;;;;;;10.10;7.13;;;;;;;33.96;36.22;95792.00;5051029;28;20485;-73
2022/06/19 11:35:04;;;;;;;14.97;7.57;;;;;;;34.37;35.44;95791.63;5015096;28;20489;-73
2022/06/19 11:37:36;;;;;;;11.50;6.20;;;;;;;34.52;35.79;95789.38;5031491;28;20480;-74
2022/06/19 11:40:03;;;;;;;10.00;6.67;;;;;;;34.13;36.02;95781.06;5031587;28;20453;-74
2022/06/19 11:42:46;;;;;;;16.23;7.70;;;;;;;34.40;35.44;95787.13;5036143;28;20439;-74
2022/06/19 11:45:13;;;;;;;13.57;7.03;;;;;;;34.16;35.93;95793.78;5038814;28;20480;-73
2022/06/19 11:47:46;;;;;;;12.27;7.50;;;;;;;34.40;36.27;95792.63;5031050;28;20849;-74
2022/06/19 11:50:16;;;;;;;13.67;8.70;;;;;;;34.72;35.68;95795.88;5031118;28;20466;-74
2022/06/19 11:52:58;;;;;;;10.47;6.30;;;;;;;34.58;35.49;95776.38;5032591;28;20433;-74
2022/06/19 11:55:31;;;;;;;12.97;7.10;;;;;;;34.79;34.93;95806.38;5031184;28;20528;-74
2022/06/19 11:58:02;;;;;;;13.33;7.60;;;;;;;34.76;35.74;95788.91;5031197;28;20446;-74
2022/06/19 12:00:35;;;;;;;16.03;9.07;;;;;;;35.38;34.92;95781.34;5030736;28;20511;-74